Terminal Aerodrome Forecast
Issued by NWS

Home | Current Version | Previous Version | Graphics & Text | Print | Product List | Glossary On
Versions: 1 2 3 4 5 6 7 8 9 10 11 12 13 14 15 16 17 18 19 20 21 22 23 24 25 26 27 28 29 30 31 32 33 34 35 36 37 38 39
000
FTUS43 KLOT 271957 AAA
TAFORD
TAF AMD
KORD 271957Z 2720/2824 11008KT P6SM SCT040
     FM280200 16005KT P6SM SCT250
     FM281400 18008KT P6SM SCT030 BKN250
     FM282100 11008KT P6SM SCT040 BKN150=

USA.gov is the U.S. government's official web portal to all federal, state and local government web resources and services.